Axtell, NE

6:21 PM CST on December 22, 2014 (GMT -0600)
Hastings Municipal | Change Station
CLOSE
Current Station
Airport
Location: Hastings,
Elevation: 1959 ft
Nearby Weather Stations

Elev 1959 ft 40.60 °N, 98.43 °W | Updated 28 minutes ago

Overcast
Overcast
42 °F
Feels Like 34 °F
N
15
Wind Variable Wind from NW

Today
High -- | Low -- °F
--% Chance of Precip.
Yesterday
High -- | Low -- °F
Precip. -- in
7:56 AM 5:13 PM
New Moon, 1% visible
Pressure 29.54 in
Visibility 10.0 miles
Clouds Overcast 7000 ft
Windchill 34 °F
Dew Point 30 °F
Humidity 62%
Rainfall 0.00 in
Snow Depth Not available.
UV 0 out of 12
Pollen .10 out of 12
Air Quality Not available.
Flu Activity Not available.
METAR KHSI 222353Z AUTO 32013KT 10SM OVC070 06/M01 A2951 RMK AO2 SLP002 T00561011 10094 20056 53015

More Conditions Fewer Conditions

Pressure 29.54 in
Visibility 10.0 miles
Clouds Overcast 7000 ft
Windchill 34 °F
Dew Point 30 °F
Humidity 62%
Rainfall 0.00 in
Snow Depth Not available.
UV 0 out of 12
Pollen .10 out of 12
Air Quality Not available.
Flu Activity Not available.
METAR KHSI 222353Z AUTO 32013KT 10SM OVC070 06/M01 A2951 RMK AO2 SLP002 T00561011 10094 20056 53015

More Conditions Fewer Conditions

10-Day Weather Forecast

Almanac

Astronomy

Dec. 22, 2014 Rise Set
Actual Time
Civil Twilight
Nautical Twilight
Astronomical Twilight
Moon
Length of Visible Light
Length of Day
Tomorrow will be .
, % of the Moon is Illuminated

Today's Extremes

State Highs State Lows

Community

WunderPhotos

Upload Photos

1,779,738 photos uploaded!

WunderBlogs® & News

Nearby

Air Quality

  Air Quality AQ Index Pollutant
Not available.

Snow Depth

Station Depth Elevation

Earthquake Activity

City Distance Mag. Time & Date
Minimum magnitude displayed is 2.5.

Coastal Water Temperatures

Place Temperature

Nearby Weather Stations